createdAt,value
2018-09-04T00:00:42.381Z,0.00
2018-09-04T00:01:42.363Z,0.00
2018-09-04T00:02:42.338Z,0.00
2018-09-04T00:03:42.316Z,0.00
2018-09-04T00:04:42.294Z,0.00
2018-09-04T00:05:42.274Z,0.00
2018-09-04T00:06:42.253Z,0.00
2018-09-04T00:07:42.249Z,0.00
2018-09-04T00:08:42.209Z,0.00
2018-09-04T00:09:42.188Z,0.00
2018-09-04T00:10:42.167Z,0.00
2018-09-04T00:11:42.149Z,0.00
2018-09-04T00:12:42.124Z,0.00
2018-09-04T00:13:42.103Z,0.00
2018-09-04T00:14:42.083Z,0.00
2018-09-04T00:15:42.061Z,0.00
2018-09-04T00:16:42.037Z,0.00
2018-09-04T00:17:42.016Z,0.00
2018-09-04T00:18:41.995Z,0.00
2018-09-04T00:19:41.977Z,0.00
2018-09-04T00:20:41.953Z,0.00
2018-09-04T00:21:41.934Z,0.00
2018-09-04T00:22:41.911Z,0.00
2018-09-04T00:23:41.889Z,0.00
2018-09-04T00:24:41.867Z,0.00
2018-09-04T00:25:41.846Z,0.00
2018-09-04T00:26:41.826Z,0.00
2018-09-04T00:27:41.810Z,0.00
2018-09-04T00:28:41.782Z,0.00
2018-09-04T00:29:41.761Z,0.00
2018-09-04T00:30:41.739Z,0.00
2018-09-04T00:31:41.721Z,0.00
2018-09-04T00:32:41.697Z,0.00
2018-09-04T00:33:41.675Z,0.00
2018-09-04T00:34:41.654Z,0.00
2018-09-04T00:35:41.632Z,0.00
2018-09-04T00:36:41.610Z,0.00
2018-09-04T00:37:41.591Z,0.00
2018-09-04T00:38:41.569Z,0.00
2018-09-04T00:39:41.547Z,0.00
2018-09-04T00:40:41.526Z,0.00
2018-09-04T00:41:41.503Z,0.00
2018-09-04T00:42:41.482Z,0.00
2018-09-04T00:43:41.461Z,0.00
2018-09-04T00:44:41.438Z,0.00
2018-09-04T00:45:41.423Z,0.00
2018-09-04T00:46:41.397Z,0.00
2018-09-04T00:47:41.376Z,0.00
2018-09-04T00:48:41.352Z,0.00
2018-09-04T00:49:41.333Z,0.00
2018-09-04T00:50:41.311Z,0.00
2018-09-04T00:51:41.290Z,0.00
2018-09-04T00:52:41.266Z,0.00
2018-09-04T00:53:41.246Z,0.00
2018-09-04T00:54:41.224Z,0.00
2018-09-04T00:55:41.202Z,0.00
2018-09-04T00:56:41.181Z,0.00
2018-09-04T00:57:41.159Z,0.00
2018-09-04T00:58:41.140Z,0.00
2018-09-04T00:59:41.117Z,0.00
2018-09-04T01:00:41.098Z,0.00
2018-09-04T01:01:41.074Z,0.00
2018-09-04T01:02:41.053Z,0.00
2018-09-04T01:03:41.031Z,0.00
2018-09-04T01:04:41.009Z,0.00
2018-09-04T01:05:40.990Z,0.00
2018-09-04T01:06:40.965Z,0.00
2018-09-04T01:07:40.946Z,0.00
2018-09-04T01:08:40.923Z,0.00
2018-09-04T01:09:40.900Z,0.00
2018-09-04T01:10:40.880Z,0.00
2018-09-04T01:11:40.859Z,0.00
2018-09-04T01:12:40.835Z,0.00
2018-09-04T01:13:40.814Z,0.00
2018-09-04T01:14:40.793Z,0.00
2018-09-04T01:15:40.772Z,0.00
2018-09-04T01:16:40.752Z,0.00
2018-09-04T01:17:40.777Z,0.00
2018-09-04T01:18:40.710Z,0.00
2018-09-04T01:19:40.685Z,0.00
2018-09-04T01:20:40.664Z,0.00
2018-09-04T01:21:40.643Z,0.00
2018-09-04T01:22:40.621Z,0.00
2018-09-04T01:23:40.598Z,0.00
2018-09-04T01:24:40.576Z,0.00
2018-09-04T01:25:40.557Z,0.00
2018-09-04T01:26:40.533Z,0.00
2018-09-04T01:27:40.513Z,0.00
2018-09-04T01:28:40.490Z,0.00
2018-09-04T01:29:40.468Z,0.00
2018-09-04T01:30:40.451Z,0.00
2018-09-04T01:31:40.425Z,0.00
2018-09-04T01:32:40.403Z,0.00
2018-09-04T01:33:40.381Z,0.00
2018-09-04T01:34:40.359Z,0.00
2018-09-04T01:35:40.337Z,0.00
2018-09-04T01:36:40.315Z,0.00
2018-09-04T01:37:40.295Z,0.00
2018-09-04T01:38:40.274Z,0.00
2018-09-04T01:39:40.254Z,0.00
2018-09-04T01:40:40.229Z,0.00
2018-09-04T01:41:40.209Z,0.00
2018-09-04T01:42:40.187Z,0.00
2018-09-04T01:43:40.166Z,0.00
2018-09-04T01:44:40.143Z,0.00
2018-09-04T01:45:40.122Z,0.00
2018-09-04T01:46:40.101Z,0.00
2018-09-04T01:47:40.077Z,0.00
2018-09-04T01:48:40.056Z,0.00
2018-09-04T01:49:40.034Z,0.00
2018-09-04T01:50:40.012Z,0.00
2018-09-04T01:51:39.991Z,0.00
2018-09-04T01:52:39.969Z,0.00
2018-09-04T01:53:39.946Z,0.00
2018-09-04T01:54:39.924Z,0.00
2018-09-04T01:55:39.903Z,0.00
2018-09-04T01:56:39.884Z,0.00
2018-09-04T01:57:39.859Z,0.00
2018-09-04T01:58:39.838Z,0.00
2018-09-04T01:59:39.816Z,0.00
2018-09-04T02:00:39.793Z,0.00
2018-09-04T02:01:39.770Z,0.00
2018-09-04T02:02:39.752Z,0.00
2018-09-04T02:03:39.728Z,0.00
2018-09-04T02:04:39.707Z,0.00
2018-09-04T02:05:39.684Z,0.00
2018-09-04T02:06:39.664Z,0.00
2018-09-04T02:07:39.642Z,0.00
2018-09-04T02:08:39.619Z,0.00
2018-09-04T02:09:39.597Z,0.00
2018-09-04T02:10:39.575Z,0.00
2018-09-04T02:11:39.554Z,0.00
2018-09-04T02:12:39.534Z,0.00
2018-09-04T02:13:39.509Z,0.00
2018-09-04T02:14:39.487Z,0.00
2018-09-04T02:15:39.466Z,0.00
2018-09-04T02:16:39.445Z,0.00
2018-09-04T02:17:39.425Z,0.00
2018-09-04T02:18:39.401Z,0.00
2018-09-04T02:19:39.378Z,0.00
2018-09-04T02:20:39.355Z,0.00
2018-09-04T02:21:39.333Z,0.00
2018-09-04T02:22:39.312Z,0.00
2018-09-04T02:23:39.297Z,0.00
2018-09-04T02:24:39.268Z,0.00
2018-09-04T02:25:39.244Z,0.00
2018-09-04T02:26:39.224Z,0.00
2018-09-04T02:27:39.203Z,0.00
2018-09-04T02:28:39.180Z,0.00
2018-09-04T02:29:39.157Z,0.00
2018-09-04T02:30:39.136Z,0.00
2018-09-04T02:31:39.113Z,0.00
2018-09-04T02:32:39.098Z,0.00
2018-09-04T02:33:39.070Z,0.00
2018-09-04T02:34:39.048Z,0.00
2018-09-04T02:35:39.049Z,0.00
2018-09-04T02:36:39.002Z,0.00
2018-09-04T02:37:38.982Z,0.00
2018-09-04T02:38:38.959Z,0.00
2018-09-04T02:39:38.938Z,0.00
2018-09-04T02:40:38.914Z,0.00
2018-09-04T02:41:38.893Z,0.00
2018-09-04T02:42:38.871Z,0.00
2018-09-04T02:43:38.853Z,0.00
2018-09-04T02:44:38.827Z,0.00
2018-09-04T02:45:38.805Z,0.00
2018-09-04T02:46:38.782Z,0.00
2018-09-04T02:47:38.761Z,0.00
2018-09-04T02:48:38.738Z,0.00
2018-09-04T02:49:38.719Z,0.00
2018-09-04T02:50:38.695Z,0.00
2018-09-04T02:51:38.672Z,0.00
2018-09-04T02:52:38.649Z,0.00
2018-09-04T02:53:38.631Z,0.00
2018-09-04T02:54:38.605Z,0.00
2018-09-04T02:55:38.583Z,0.00
2018-09-04T02:56:38.560Z,0.00
2018-09-04T02:57:38.543Z,0.00
2018-09-04T02:58:38.516Z,0.00
2018-09-04T02:59:38.494Z,0.00
2018-09-04T03:00:38.471Z,0.00
2018-09-04T03:01:38.450Z,0.00
2018-09-04T03:02:38.429Z,0.00
2018-09-04T03:03:38.405Z,0.00
2018-09-04T03:04:38.383Z,0.00
2018-09-04T03:05:38.364Z,0.00
2018-09-04T03:06:38.339Z,0.00
2018-09-04T03:07:38.318Z,0.00
2018-09-04T03:08:38.294Z,0.00
2018-09-04T03:09:38.273Z,0.00
2018-09-04T03:10:38.251Z,0.00
2018-09-04T03:11:38.231Z,0.00
2018-09-04T03:12:38.206Z,0.00
2018-09-04T03:13:38.293Z,0.00
2018-09-04T03:14:38.162Z,0.00
2018-09-04T03:15:38.140Z,0.00
2018-09-04T03:16:38.116Z,0.00
2018-09-04T03:17:38.098Z,0.00
2018-09-04T03:18:38.071Z,0.00
2018-09-04T03:19:38.051Z,0.00
2018-09-04T03:20:38.027Z,0.00
2018-09-04T03:21:38.004Z,0.00
2018-09-04T03:22:37.984Z,0.00
2018-09-04T03:23:37.962Z,0.00
2018-09-04T03:24:37.940Z,0.00
2018-09-04T03:25:37.917Z,0.00
2018-09-04T03:26:37.896Z,0.00
2018-09-04T03:27:37.871Z,0.00
2018-09-04T03:28:37.852Z,0.00
2018-09-04T03:29:37.828Z,0.00
2018-09-04T03:30:37.807Z,0.00
2018-09-04T03:31:37.783Z,0.00
2018-09-04T03:32:37.760Z,0.00
2018-09-04T03:33:37.737Z,0.00
2018-09-04T03:34:37.715Z,0.00
2018-09-04T03:35:37.694Z,0.00
2018-09-04T03:36:37.670Z,0.00
2018-09-04T03:37:37.647Z,0.00
2018-09-04T03:38:37.625Z,0.00
2018-09-04T03:39:37.604Z,0.00
2018-09-04T03:40:37.583Z,0.00
2018-09-04T03:41:37.557Z,0.00
2018-09-04T03:42:37.536Z,0.00
2018-09-04T03:43:37.513Z,0.00
2018-09-04T03:44:37.490Z,0.00
2018-09-04T03:45:37.468Z,0.00
2018-09-04T03:46:37.446Z,0.00
2018-09-04T03:47:37.427Z,0.00
2018-09-04T03:48:37.401Z,0.00
2018-09-04T03:49:37.379Z,0.00
2018-09-04T03:50:37.363Z,0.00
2018-09-04T03:51:37.337Z,0.00
2018-09-04T03:52:37.310Z,4.00
2018-09-04T03:53:37.291Z,4.00
2018-09-04T03:54:37.267Z,4.00
2018-09-04T03:55:37.243Z,0.00
2018-09-04T03:56:37.221Z,4.00
2018-09-04T03:57:37.198Z,8.00
2018-09-04T03:58:37.177Z,4.00
2018-09-04T03:59:37.153Z,8.00
2018-09-04T04:00:37.131Z,8.00
2018-09-04T04:01:37.109Z,8.00
2018-09-04T04:02:37.088Z,12.00
2018-09-04T04:03:37.065Z,16.00
2018-09-04T04:04:37.041Z,16.00
2018-09-04T04:05:37.019Z,20.00
2018-09-04T04:06:37.000Z,20.00
2018-09-04T04:07:36.974Z,24.00
2018-09-04T04:08:36.951Z,28.00
2018-09-04T04:09:36.928Z,36.00
2018-09-04T04:10:36.907Z,44.00
2018-09-04T04:11:36.885Z,48.00
2018-09-04T04:12:36.860Z,56.00
2018-09-04T04:13:36.841Z,64.00
2018-09-04T04:14:36.815Z,76.00
2018-09-04T04:15:36.793Z,88.00
2018-09-04T04:16:36.770Z,100.00
2018-09-04T04:17:36.748Z,112.00
2018-09-04T04:18:36.726Z,128.00
2018-09-04T04:19:36.702Z,144.00
2018-09-04T04:20:36.681Z,168.00
2018-09-04T04:21:36.656Z,188.00
2018-09-04T04:22:36.634Z,212.00
2018-09-04T04:23:36.612Z,240.00
2018-09-04T04:24:36.589Z,264.00
2018-09-04T04:25:36.566Z,288.00
2018-09-04T04:26:36.545Z,316.00
2018-09-04T04:27:36.521Z,344.00
2018-09-04T04:28:36.500Z,376.00
2018-09-04T04:29:36.477Z,408.00
2018-09-04T04:30:36.454Z,440.00
2018-09-04T04:31:36.431Z,480.00
2018-09-04T04:32:36.410Z,520.00
2018-09-04T04:33:36.386Z,560.00
2018-09-04T04:34:36.364Z,608.00
2018-09-04T04:35:36.340Z,652.00
2018-09-04T04:36:36.318Z,696.00
2018-09-04T04:37:36.295Z,740.00
2018-09-04T04:38:36.273Z,784.00
2018-09-04T04:39:36.250Z,828.00
2018-09-04T04:40:36.228Z,872.00
2018-09-04T04:41:36.205Z,916.00
2018-09-04T04:42:36.183Z,960.00
2018-09-04T04:43:36.160Z,1008.00
2018-09-04T04:44:36.149Z,1052.00
2018-09-04T04:45:36.114Z,1100.00
2018-09-04T04:46:36.091Z,1148.00
2018-09-04T04:47:36.075Z,1200.00
2018-09-04T04:48:36.047Z,1248.00
2018-09-04T04:49:36.023Z,1292.00
2018-09-04T04:50:36.001Z,1328.00
2018-09-04T04:51:35.978Z,1364.00
2018-09-04T04:52:35.959Z,1408.00
2018-09-04T04:53:35.933Z,1452.00
2018-09-04T04:54:35.912Z,1504.00
2018-09-04T04:55:35.888Z,1560.00
2018-09-04T04:56:35.864Z,1628.00
2018-09-04T04:57:35.843Z,1688.00
2018-09-04T04:58:35.821Z,1752.00
2018-09-04T04:59:35.798Z,1828.00
2018-09-04T05:00:35.776Z,1896.00
2018-09-04T05:01:35.755Z,1972.00
2018-09-04T05:02:35.730Z,2052.00
2018-09-04T05:03:35.707Z,2140.00
2018-09-04T05:04:35.684Z,2232.00
2018-09-04T05:05:35.661Z,2328.00
2018-09-04T05:06:35.661Z,2436.00
2018-09-04T05:07:35.616Z,2552.00
2018-09-04T05:08:35.593Z,2672.00
2018-09-04T05:09:35.570Z,2796.00
2018-09-04T05:10:35.560Z,2972.00
2018-09-04T05:11:35.590Z,3100.00
2018-09-04T05:12:35.502Z,3268.00
2018-09-04T05:13:35.480Z,3416.00
2018-09-04T05:14:35.458Z,3572.00
2018-09-04T05:15:35.436Z,3752.00
2018-09-04T05:16:35.414Z,3872.00
2018-09-04T05:17:35.390Z,4056.00
2018-09-04T05:18:35.367Z,4136.00
2018-09-04T05:19:35.346Z,3908.00
2018-09-04T05:20:35.323Z,4136.00
2018-09-04T05:21:35.299Z,4016.00
2018-09-04T05:22:35.339Z,4056.00
2018-09-04T05:23:35.255Z,4228.00
2018-09-04T05:24:35.232Z,4396.00
2018-09-04T05:25:35.209Z,4752.00
2018-09-04T05:26:35.187Z,5012.00
2018-09-04T05:27:35.167Z,5056.00
2018-09-04T05:28:35.144Z,5144.00
2018-09-04T05:29:35.121Z,5400.00
2018-09-04T05:30:35.099Z,5656.00
2018-09-04T05:31:35.077Z,5640.00
2018-09-04T05:32:35.055Z,5264.00
2018-09-04T05:33:35.033Z,4760.00
2018-09-04T05:34:35.011Z,4620.00
2018-09-04T05:35:34.988Z,4636.00
2018-09-04T05:36:35.001Z,4672.00
2018-09-04T05:37:34.944Z,4600.00
2018-09-04T05:38:34.923Z,4524.00
2018-09-04T05:39:34.899Z,4484.00
2018-09-04T05:40:34.878Z,4696.00
2018-09-04T05:41:34.856Z,4976.00
2018-09-04T05:42:34.833Z,5412.00
2018-09-04T05:43:34.812Z,5756.00
2018-09-04T05:44:34.795Z,6136.00
2018-09-04T05:45:34.769Z,6104.00
2018-09-04T05:46:34.746Z,6004.00
2018-09-04T05:47:34.724Z,5672.00
2018-09-04T05:48:34.703Z,5348.00
2018-09-04T05:49:34.683Z,5300.00
2018-09-04T05:50:34.668Z,5464.00
2018-09-04T05:51:34.638Z,5400.00
2018-09-04T05:52:34.615Z,5396.00
2018-09-04T05:53:34.594Z,5352.00
2018-09-04T05:54:34.572Z,5524.00
2018-09-04T05:55:34.553Z,5648.00
2018-09-04T05:56:34.528Z,5872.00
2018-09-04T05:57:34.508Z,6232.00
2018-09-04T05:58:34.486Z,6892.00
2018-09-04T05:59:34.464Z,8576.00
2018-09-04T06:00:34.443Z,8932.00
2018-09-04T06:01:34.423Z,8036.00
2018-09-04T06:02:34.401Z,7676.00
2018-09-04T06:03:34.378Z,7908.00
2018-09-04T06:04:34.356Z,7652.00
2018-09-04T06:05:34.335Z,7468.00
2018-09-04T06:06:34.313Z,8552.00
2018-09-04T06:07:34.292Z,9556.00
2018-09-04T06:08:34.270Z,10036.00
2018-09-04T06:09:34.248Z,11040.00
2018-09-04T06:10:34.228Z,10936.00
2018-09-04T06:11:34.206Z,10868.00
2018-09-04T06:12:34.188Z,10068.00
2018-09-04T06:13:34.208Z,10116.00
2018-09-04T06:14:34.143Z,11212.00
2018-09-04T06:15:34.146Z,11524.00
2018-09-04T06:16:34.100Z,11040.00
2018-09-04T06:17:34.080Z,11288.00
2018-09-04T06:18:34.059Z,10340.00
2018-09-04T06:19:34.039Z,9772.00
2018-09-04T06:20:34.017Z,10388.00
2018-09-04T06:21:33.994Z,11216.00
2018-09-04T06:22:33.975Z,11356.00
2018-09-04T06:23:33.959Z,12280.00
2018-09-04T06:24:33.934Z,12824.00
2018-09-04T06:25:33.911Z,12684.00
2018-09-04T06:26:33.893Z,12984.00
2018-09-04T06:27:33.870Z,14060.00
2018-09-04T06:28:33.849Z,13636.00
2018-09-04T06:29:33.957Z,13472.00
2018-09-04T06:30:33.807Z,14080.00
2018-09-04T06:31:33.787Z,14496.00
2018-09-04T06:32:33.768Z,15848.00
2018-09-04T06:33:33.745Z,15224.00
2018-09-04T06:34:33.724Z,16016.00
2018-09-04T06:35:33.780Z,16280.00
2018-09-04T06:36:33.741Z,16148.00
2018-09-04T06:37:33.666Z,16704.00
2018-09-04T06:38:33.692Z,16416.00
2018-09-04T06:39:33.624Z,14740.00
2018-09-04T06:40:33.600Z,13468.00
2018-09-04T06:41:33.580Z,12832.00
2018-09-04T06:42:33.563Z,12444.00
2018-09-04T06:43:33.541Z,12084.00
2018-09-04T06:44:33.522Z,11408.00
2018-09-04T06:45:33.501Z,11584.00
2018-09-04T06:46:33.529Z,11584.00
2018-09-04T06:47:33.462Z,11308.00
2018-09-04T06:48:33.440Z,11784.00
2018-09-04T06:49:33.418Z,12172.00
2018-09-04T06:50:33.400Z,10768.00
2018-09-04T06:51:33.380Z,11156.00
2018-09-04T06:52:33.357Z,11216.00
2018-09-04T06:53:33.338Z,11584.00
2018-09-04T06:54:33.371Z,11868.00
2018-09-04T06:55:33.297Z,12004.00
2018-09-04T06:56:33.275Z,12964.00
2018-09-04T06:57:33.255Z,12188.00
2018-09-04T06:58:33.234Z,12716.00
2018-09-04T06:59:33.215Z,11120.00
2018-09-04T07:00:33.193Z,10596.00
2018-09-04T07:01:33.173Z,11512.00
2018-09-04T07:02:33.154Z,11056.00
2018-09-04T07:03:33.132Z,11084.00
2018-09-04T07:04:33.111Z,10916.00
2018-09-04T07:05:33.090Z,10580.00
2018-09-04T07:06:33.071Z,10688.00
2018-09-04T07:07:33.051Z,11068.00
2018-09-04T07:08:33.028Z,11516.00
2018-09-04T07:09:33.009Z,12708.00
2018-09-04T07:10:32.989Z,12704.00
2018-09-04T07:11:32.968Z,14280.00
2018-09-04T07:12:32.948Z,14276.00
2018-09-04T07:13:32.927Z,13484.00
2018-09-04T07:14:32.905Z,14224.00
2018-09-04T07:15:32.885Z,14556.00
2018-09-04T07:16:32.865Z,16488.00
2018-09-04T07:17:32.843Z,16632.00
2018-09-04T07:18:32.824Z,16896.00
2018-09-04T07:19:32.803Z,17624.00
2018-09-04T07:20:32.782Z,18528.00
2018-09-04T07:21:32.766Z,18880.00
2018-09-04T07:22:32.742Z,18848.00
2018-09-04T07:23:32.724Z,18912.00
2018-09-04T07:24:32.700Z,18944.00
2018-09-04T07:25:32.682Z,20096.00
2018-09-04T07:26:32.661Z,20512.00
2018-09-04T07:27:32.642Z,20416.00
2018-09-04T07:28:32.620Z,20512.00
2018-09-04T07:29:32.601Z,21504.00
2018-09-04T07:30:32.582Z,21056.00
2018-09-04T07:31:32.563Z,19296.00
2018-09-04T07:32:32.542Z,17376.00
2018-09-04T07:33:32.522Z,15732.00
2018-09-04T07:34:32.504Z,15140.00
2018-09-04T07:35:32.484Z,15140.00
2018-09-04T07:36:32.574Z,15132.00
2018-09-04T07:37:32.450Z,14964.00
2018-09-04T07:38:32.425Z,14824.00
2018-09-04T07:39:32.410Z,14780.00
2018-09-04T07:40:32.387Z,14988.00
2018-09-04T07:41:32.368Z,15208.00
2018-09-04T07:42:32.348Z,15284.00
2018-09-04T07:43:32.329Z,15460.00
2018-09-04T07:44:32.310Z,15572.00
2018-09-04T07:45:32.293Z,15612.00
2018-09-04T07:46:32.292Z,15592.00
2018-09-04T07:47:32.253Z,15636.00
2018-09-04T07:48:32.234Z,15704.00
2018-09-04T07:49:32.214Z,15728.00
2018-09-04T07:50:32.194Z,15936.00
2018-09-04T07:51:32.175Z,16252.00
2018-09-04T07:52:32.155Z,16648.00
2018-09-04T07:53:32.136Z,17096.00
2018-09-04T07:54:32.118Z,17720.00
2018-09-04T07:55:32.097Z,18784.00
2018-09-04T07:56:32.077Z,19904.00
2018-09-04T07:57:32.058Z,20448.00
2018-09-04T07:58:32.038Z,20608.00
2018-09-04T07:59:32.020Z,21024.00
2018-09-04T08:00:31.999Z,21504.00
2018-09-04T08:01:31.983Z,21952.00
2018-09-04T08:02:31.962Z,22048.00
2018-09-04T08:03:31.943Z,21600.00
2018-09-04T08:04:31.924Z,21408.00
2018-09-04T08:05:31.904Z,21536.00
2018-09-04T08:06:31.887Z,21920.00
2018-09-04T08:07:31.867Z,22496.00
2018-09-04T08:08:31.857Z,23104.00
2018-09-04T08:09:31.833Z,24160.00
2018-09-04T08:10:31.810Z,25376.00
2018-09-04T08:11:31.792Z,26560.00
2018-09-04T08:12:31.773Z,28224.00
2018-09-04T08:13:31.755Z,27616.00
2018-09-04T08:14:31.735Z,27040.00
2018-09-04T08:15:31.718Z,27040.00
2018-09-04T08:16:31.699Z,27488.00
2018-09-04T08:17:31.680Z,27552.00
2018-09-04T08:18:31.662Z,27776.00
2018-09-04T08:19:31.644Z,29312.00
2018-09-04T08:20:31.763Z,31072.00
2018-09-04T08:21:31.608Z,35488.00
2018-09-04T08:22:31.590Z,40256.00
2018-09-04T08:23:31.572Z,39648.00
2018-09-04T08:24:31.553Z,36704.00
2018-09-04T08:25:31.536Z,36320.00
2018-09-04T08:26:31.526Z,39552.00
2018-09-04T08:27:31.500Z,44288.00
2018-09-04T08:28:31.481Z,46880.00
2018-09-04T08:29:31.465Z,48640.00
2018-09-04T08:30:31.447Z,44640.00
2018-09-04T08:31:31.433Z,38656.00
2018-09-04T08:32:31.413Z,36512.00
2018-09-04T08:33:31.396Z,39776.00
2018-09-04T08:34:31.380Z,41280.00
2018-09-04T08:35:31.366Z,42176.00
2018-09-04T08:36:31.348Z,44544.00
2018-09-04T08:37:31.331Z,44448.00
2018-09-04T08:38:31.317Z,41952.00
2018-09-04T08:39:31.298Z,38944.00
2018-09-04T08:40:31.280Z,34656.00
2018-09-04T08:41:31.264Z,32256.00
2018-09-04T08:42:31.251Z,30688.00
2018-09-04T08:43:31.233Z,30560.00
2018-09-04T08:44:31.216Z,29760.00
2018-09-04T08:45:31.200Z,29152.00
2018-09-04T08:46:31.185Z,28288.00
2018-09-04T08:47:31.175Z,28608.00
2018-09-04T08:48:31.152Z,29152.00
2018-09-04T08:49:31.137Z,28992.00
2018-09-04T08:50:31.168Z,30208.00
2018-09-04T08:51:31.108Z,33088.00
2018-09-04T08:52:31.090Z,34944.00
2018-09-04T08:53:31.171Z,35232.00
2018-09-04T08:54:31.056Z,36064.00
2018-09-04T08:55:31.039Z,31648.00
2018-09-04T08:56:31.021Z,30688.00
2018-09-04T08:57:31.005Z,29952.00
2018-09-04T08:58:30.998Z,28480.00
2018-09-04T08:59:30.979Z,28800.00
2018-09-04T09:00:30.960Z,30880.00
2018-09-04T09:01:30.940Z,36608.00
2018-09-04T09:02:30.927Z,43072.00
2018-09-04T09:03:30.908Z,50240.00
2018-09-04T09:04:30.892Z,54976.00
2018-09-04T09:05:30.926Z,56192.00
2018-09-04T09:06:30.860Z,56576.00
2018-09-04T09:07:30.844Z,56768.00
2018-09-04T09:08:30.827Z,60128.00
2018-09-04T09:09:30.814Z,63680.00
2018-09-04T09:10:30.799Z,69024.00
2018-09-04T09:11:30.783Z,72128.00
2018-09-04T09:12:30.767Z,74816.00
2018-09-04T09:13:30.751Z,75552.00
2018-09-04T09:14:30.736Z,75360.00
2018-09-04T09:15:30.722Z,72224.00
2018-09-04T09:16:30.710Z,69216.00
2018-09-04T09:17:30.695Z,66400.00
2018-09-04T09:18:30.679Z,64352.00
2018-09-04T09:19:30.666Z,64160.00
2018-09-04T09:20:30.660Z,62944.00
2018-09-04T09:21:30.640Z,62400.00
2018-09-04T09:22:30.626Z,60800.00
2018-09-04T09:23:30.614Z,60928.00
2018-09-04T09:24:30.599Z,61472.00
2018-09-04T09:25:30.589Z,62464.00
2018-09-04T09:26:30.575Z,63328.00
2018-09-04T09:27:30.561Z,65728.00
2018-09-04T09:28:30.554Z,66432.00
2018-09-04T09:29:30.539Z,69152.00
2018-09-04T09:30:30.524Z,70656.00
2018-09-04T09:31:30.513Z,70592.00
2018-09-04T09:32:30.499Z,64384.00
2018-09-04T09:33:30.486Z,65248.00
2018-09-04T09:34:30.474Z,64640.00
2018-09-04T09:35:30.465Z,60608.00
2018-09-04T09:36:30.456Z,62592.00
2018-09-04T09:37:30.439Z,56736.00
2018-09-04T09:38:30.425Z,51296.00
2018-09-04T09:39:30.412Z,49696.00
2018-09-04T09:40:30.399Z,47392.00
2018-09-04T09:41:30.385Z,48608.00
2018-09-04T09:42:30.374Z,43168.00
2018-09-04T09:43:30.362Z,45056.00
2018-09-04T09:44:30.348Z,56224.00
2018-09-04T09:45:30.335Z,54976.00
2018-09-04T09:46:30.324Z,62560.00
2018-09-04T09:47:30.309Z,75392.00
2018-09-04T09:48:30.295Z,79296.00
2018-09-04T09:49:30.285Z,80992.00
2018-09-04T09:50:30.267Z,82112.00
2018-09-04T09:51:30.255Z,75200.00
2018-09-04T09:52:30.255Z,76800.00
2018-09-04T09:53:30.390Z,70880.00
2018-09-04T09:54:30.218Z,62528.00
2018-09-04T09:55:30.202Z,71200.00
2018-09-04T09:56:30.296Z,67456.00
2018-09-04T09:57:30.184Z,71712.00
2018-09-04T09:58:30.164Z,74336.00
2018-09-04T09:59:30.253Z,77376.00
2018-09-04T10:00:30.138Z,78176.00
2018-09-04T10:01:30.158Z,79488.00
2018-09-04T10:02:30.114Z,83072.00
2018-09-04T10:03:30.100Z,85152.00
2018-09-04T10:04:30.089Z,87456.00
2018-09-04T10:05:30.078Z,86560.00
2018-09-04T10:06:30.068Z,85696.00
2018-09-04T10:07:30.124Z,85792.00
2018-09-04T10:08:30.046Z,87328.00
2018-09-04T10:09:30.030Z,87424.00
2018-09-04T10:10:30.045Z,88160.00
2018-09-04T10:11:30.006Z,89216.00
2018-09-04T10:12:29.993Z,89792.00
2018-09-04T10:13:29.983Z,90368.00
2018-09-04T10:14:29.971Z,83456.00
2018-09-04T10:15:29.961Z,76608.00
2018-09-04T10:16:29.948Z,75712.00
2018-09-04T10:17:29.936Z,83584.00
2018-09-04T10:18:29.925Z,83264.00
2018-09-04T10:19:29.914Z,88928.00
2018-09-04T10:20:29.901Z,92096.00
2018-09-04T10:21:29.890Z,89792.00
2018-09-04T10:22:29.880Z,85152.00
2018-09-04T10:23:29.867Z,80096.00
2018-09-04T10:24:29.852Z,79264.00
2018-09-04T10:25:29.841Z,78048.00
2018-09-04T10:26:29.877Z,79680.00
2018-09-04T10:27:29.820Z,81664.00
2018-09-04T10:28:29.808Z,81664.00
2018-09-04T10:29:29.796Z,79200.00
2018-09-04T10:30:29.783Z,77280.00
2018-09-04T10:31:29.774Z,75936.00
2018-09-04T10:32:29.761Z,75264.00
2018-09-04T10:33:29.750Z,75296.00
2018-09-04T10:34:29.739Z,79776.00
2018-09-04T10:35:29.728Z,80320.00
2018-09-04T10:36:29.716Z,79808.00
2018-09-04T10:37:29.703Z,79200.00
2018-09-04T10:38:29.694Z,78368.00
2018-09-04T10:39:29.680Z,77312.00
2018-09-04T10:40:29.710Z,77696.00
2018-09-04T10:41:29.658Z,81024.00
2018-09-04T10:42:29.646Z,82432.00
2018-09-04T10:43:29.642Z,83616.00
2018-09-04T10:44:29.665Z,81792.00
2018-09-04T10:45:29.610Z,81024.00
2018-09-04T10:46:29.599Z,81664.00
2018-09-04T10:47:29.588Z,81600.00
2018-09-04T10:48:29.574Z,80320.00
2018-09-04T10:49:29.563Z,82624.00
2018-09-04T10:50:29.552Z,80544.00
2018-09-04T10:51:29.541Z,81088.00
2018-09-04T10:52:29.530Z,84800.00
2018-09-04T10:53:29.516Z,85760.00
2018-09-04T10:54:29.503Z,85216.00
2018-09-04T10:55:29.494Z,84288.00
2018-09-04T10:56:29.481Z,83616.00
2018-09-04T10:57:29.468Z,85440.00
2018-09-04T10:58:29.456Z,86656.00
2018-09-04T10:59:29.446Z,86016.00
2018-09-04T11:00:29.432Z,82272.00
2018-09-04T11:01:29.420Z,77440.00
2018-09-04T11:02:29.412Z,77472.00
2018-09-04T11:03:29.402Z,77056.00
2018-09-04T11:04:29.386Z,78560.00
2018-09-04T11:05:29.371Z,72544.00
2018-09-04T11:06:29.360Z,76064.00
2018-09-04T11:07:29.350Z,73632.00
2018-09-04T11:08:29.335Z,75680.00
2018-09-04T11:09:29.388Z,70912.00
2018-09-04T11:10:29.311Z,67584.00
2018-09-04T11:11:29.300Z,82464.00
2018-09-04T11:12:29.287Z,86272.00
2018-09-04T11:13:29.273Z,85248.00
2018-09-04T11:14:29.262Z,82176.00
2018-09-04T11:15:29.250Z,79072.00
2018-09-04T11:16:29.240Z,80160.00
2018-09-04T11:17:29.227Z,82368.00
2018-09-04T11:18:29.213Z,88448.00
2018-09-04T11:19:29.203Z,91936.00
2018-09-04T11:20:29.189Z,89152.00
2018-09-04T11:21:29.178Z,86240.00
2018-09-04T11:22:29.167Z,85632.00
2018-09-04T11:23:29.155Z,59072.00
2018-09-04T11:24:29.141Z,84512.00
2018-09-04T11:25:29.130Z,86112.00
2018-09-04T11:26:29.120Z,87104.00
2018-09-04T11:27:29.106Z,88160.00
2018-09-04T11:28:29.095Z,87360.00
2018-09-04T11:29:29.085Z,89184.00
2018-09-04T11:30:29.078Z,91456.00
2018-09-04T11:31:29.061Z,92512.00
2018-09-04T11:32:29.049Z,91776.00
2018-09-04T11:33:29.037Z,91328.00
2018-09-04T11:34:29.028Z,90368.00
2018-09-04T11:35:29.016Z,89280.00
2018-09-04T11:36:29.005Z,90880.00
2018-09-04T11:37:29.015Z,92192.00
2018-09-04T11:38:28.982Z,93280.00
2018-09-04T11:39:28.972Z,77088.00
2018-09-04T11:40:28.971Z,59936.00
2018-09-04T11:41:28.946Z,101664.00
2018-09-04T11:42:28.934Z,100928.00
2018-09-04T11:43:28.923Z,101216.00
2018-09-04T11:44:28.911Z,102816.00
2018-09-04T11:45:28.905Z,101248.00
2018-09-04T11:46:28.888Z,103520.00
2018-09-04T11:47:28.878Z,87232.00
2018-09-04T11:48:28.865Z,97568.00
2018-09-04T11:49:28.854Z,81536.00
2018-09-04T11:50:28.842Z,99136.00
2018-09-04T11:51:28.831Z,90240.00
2018-09-04T11:52:28.889Z,83264.00
2018-09-04T11:53:28.809Z,37888.00
2018-09-04T11:54:28.796Z,28448.00
2018-09-04T11:55:28.783Z,28896.00
2018-09-04T11:56:28.773Z,39200.00
2018-09-04T11:57:28.760Z,80608.00
2018-09-04T11:58:28.749Z,78656.00
2018-09-04T11:59:28.740Z,74048.00
2018-09-04T12:00:28.724Z,70592.00
2018-09-04T12:01:28.712Z,68928.00
2018-09-04T12:02:28.702Z,70016.00
2018-09-04T12:03:28.690Z,77760.00
2018-09-04T12:04:28.677Z,86144.00
2018-09-04T12:05:28.666Z,89088.00
2018-09-04T12:06:28.705Z,85824.00
2018-09-04T12:07:28.643Z,81536.00
2018-09-04T12:08:28.631Z,81344.00
2018-09-04T12:09:28.619Z,85824.00
2018-09-04T12:10:28.609Z,89024.00
2018-09-04T12:11:28.597Z,36672.00
2018-09-04T12:12:28.776Z,29344.00
2018-09-04T12:13:28.574Z,28224.00
2018-09-04T12:14:28.563Z,29920.00
2018-09-04T12:15:28.550Z,38432.00
2018-09-04T12:16:28.538Z,85536.00
2018-09-04T12:17:28.528Z,84608.00
2018-09-04T12:18:28.514Z,84192.00